createdAt,value
2017-05-26T00:00:22.300Z,15.24
2017-05-26T00:01:03.178Z,15.25
2017-05-26T00:01:44.075Z,15.19
2017-05-26T00:02:24.960Z,15.21
2017-05-26T00:03:05.856Z,15.18
2017-05-26T00:03:46.723Z,15.18
2017-05-26T00:04:27.662Z,15.21
2017-05-26T00:05:08.558Z,15.19
2017-05-26T00:05:49.447Z,15.24
2017-05-26T00:06:30.313Z,15.28
2017-05-26T00:07:11.179Z,15.31
2017-05-26T00:07:52.040Z,15.27
2017-05-26T00:08:32.970Z,15.29
2017-05-26T00:09:13.848Z,15.25
2017-05-26T00:09:54.754Z,15.24
2017-05-26T00:10:35.646Z,15.24
2017-05-26T00:11:16.531Z,15.29
2017-05-26T00:11:57.398Z,15.19
2017-05-26T00:12:38.258Z,15.22
2017-05-26T00:13:19.160Z,15.18
2017-05-26T00:14:00.064Z,15.07
2017-05-26T00:14:40.926Z,15.11
2017-05-26T00:15:21.833Z,15.24
2017-05-26T00:16:02.724Z,15.21
2017-05-26T00:16:43.607Z,15.21
2017-05-26T00:17:24.491Z,15.17
2017-05-26T00:18:05.421Z,15.18
2017-05-26T00:18:46.271Z,15.1
2017-05-26T00:19:27.136Z,15.11
2017-05-26T00:20:08.030Z,15.02
2017-05-26T00:20:48.957Z,15.07
2017-05-26T00:21:29.813Z,15.1
2017-05-26T00:22:10.672Z,15.07
2017-05-26T00:22:51.576Z,15.15
2017-05-26T00:23:32.485Z,15.15
2017-05-26T00:24:13.341Z,15.09
2017-05-26T00:24:54.215Z,15.04
2017-05-26T00:25:35.110Z,15.06
2017-05-26T00:26:16.023Z,15.07
2017-05-26T00:26:56.874Z,15.06
2017-05-26T00:27:37.776Z,15.06
2017-05-26T00:28:18.671Z,15.07
2017-05-26T00:28:59.555Z,15.14
2017-05-26T00:29:40.465Z,15.09
2017-05-26T00:30:21.375Z,15.15
2017-05-26T00:31:02.227Z,15.09
2017-05-26T00:31:43.091Z,15.02
2017-05-26T00:32:24.004Z,15.03
2017-05-26T00:33:04.884Z,15.11
2017-05-26T00:33:45.759Z,15.07
2017-05-26T00:34:26.622Z,15.09
2017-05-26T00:35:07.503Z,15.02
2017-05-26T00:35:48.418Z,15.07
2017-05-26T00:36:29.300Z,15.04
2017-05-26T00:37:10.185Z,15.09
2017-05-26T00:37:51.056Z,15
2017-05-26T00:39:08.938Z,15.07
2017-05-26T00:39:49.810Z,15.04
2017-05-26T00:40:30.708Z,15.06
2017-05-26T00:41:11.606Z,15.14
2017-05-26T00:41:52.499Z,15.11
2017-05-26T00:42:33.394Z,15.03
2017-05-26T00:43:14.272Z,15
2017-05-26T00:43:55.168Z,15.07
2017-05-26T00:44:36.055Z,15.15
2017-05-26T00:45:16.940Z,14.97
2017-05-26T00:45:57.826Z,15
2017-05-26T00:46:38.713Z,15.04
2017-05-26T00:47:19.609Z,14.97
2017-05-26T00:48:00.495Z,15.06
2017-05-26T00:48:41.375Z,15.09
2017-05-26T00:49:22.263Z,15.11
2017-05-26T00:50:03.159Z,15.11
2017-05-26T00:50:44.050Z,15.14
2017-05-26T00:51:24.945Z,15.1
2017-05-26T00:52:05.855Z,15.07
2017-05-26T00:52:46.724Z,15.1
2017-05-26T00:53:27.620Z,15.02
2017-05-26T00:54:08.527Z,15.04
2017-05-26T00:54:49.419Z,15.02
2017-05-26T00:55:30.314Z,15.11
2017-05-26T00:56:11.196Z,15.07
2017-05-26T00:56:52.083Z,15.1
2017-05-26T00:57:32.967Z,15.14
2017-05-26T00:58:13.871Z,15.11
2017-05-26T00:58:54.735Z,15.14
2017-05-26T00:59:35.618Z,15.15
2017-05-26T01:00:16.506Z,15.25
2017-05-26T01:00:57.395Z,15.18
2017-05-26T01:01:38.268Z,15.21
2017-05-26T01:02:19.151Z,15.22
2017-05-26T01:03:00.046Z,15.18
2017-05-26T01:03:40.930Z,15.19
2017-05-26T01:04:21.811Z,15.21
2017-05-26T01:05:02.714Z,15.22
2017-05-26T01:05:43.611Z,15.21
2017-05-26T01:06:24.481Z,15.22
2017-05-26T01:07:05.347Z,15.22
2017-05-26T01:07:46.275Z,15.21
2017-05-26T01:08:27.151Z,15.24
2017-05-26T01:09:08.028Z,15.15
2017-05-26T01:09:48.927Z,15.19
2017-05-26T01:10:29.839Z,15.22
2017-05-26T01:12:23.407Z,15.24
2017-05-26T01:13:04.294Z,15.22
2017-05-26T01:13:45.188Z,15.14
2017-05-26T01:14:26.059Z,15.06
2017-05-26T01:15:06.938Z,15.14
2017-05-26T01:15:47.830Z,15.15
2017-05-26T01:16:28.719Z,15.11
2017-05-26T01:17:09.593Z,15.03
2017-05-26T01:17:50.476Z,15.1
2017-05-26T01:18:31.362Z,15.09
2017-05-26T01:19:12.287Z,15.06
2017-05-26T01:19:53.144Z,15.06
2017-05-26T01:20:34.001Z,15
2017-05-26T01:21:14.898Z,15
2017-05-26T01:21:55.803Z,15.04
2017-05-26T01:22:36.682Z,15.03
2017-05-26T01:23:17.575Z,15.02
2017-05-26T01:23:58.465Z,14.99
2017-05-26T01:24:39.358Z,15
2017-05-26T01:25:20.228Z,14.94
2017-05-26T01:26:01.125Z,15
2017-05-26T01:26:42.010Z,15.02
2017-05-26T01:27:22.881Z,14.94
2017-05-26T01:28:03.756Z,15.03
2017-05-26T01:28:44.650Z,15.02
2017-05-26T01:29:25.539Z,14.89
2017-05-26T01:30:06.433Z,14.96
2017-05-26T01:30:47.313Z,14.96
2017-05-26T01:31:28.194Z,14.88
2017-05-26T01:32:09.091Z,14.91
2017-05-26T01:32:49.966Z,14.96
2017-05-26T01:33:30.854Z,14.88
2017-05-26T01:34:11.753Z,14.84
2017-05-26T01:34:52.620Z,14.91
2017-05-26T01:35:33.498Z,14.96
2017-05-26T01:36:14.384Z,14.84
2017-05-26T01:36:55.274Z,14.88
2017-05-26T01:37:36.157Z,14.97
2017-05-26T01:38:17.081Z,14.92
2017-05-26T01:38:57.960Z,14.89
2017-05-26T01:39:38.840Z,14.89
2017-05-26T01:40:19.780Z,14.82
2017-05-26T01:41:00.654Z,14.89
2017-05-26T01:41:41.558Z,14.96
2017-05-26T01:42:22.460Z,14.91
2017-05-26T01:43:03.329Z,14.91
2017-05-26T01:43:44.225Z,14.84
2017-05-26T01:44:25.134Z,14.84
2017-05-26T01:45:06.028Z,14.82
2017-05-26T01:45:46.923Z,14.86
2017-05-26T01:46:27.828Z,14.73
2017-05-26T01:47:08.691Z,14.84
2017-05-26T01:47:49.667Z,14.86
2017-05-26T01:48:30.589Z,14.85
2017-05-26T01:49:11.504Z,14.79
2017-05-26T01:49:52.410Z,14.85
2017-05-26T01:50:33.283Z,14.81
2017-05-26T01:51:14.173Z,14.7
2017-05-26T01:51:55.063Z,14.72
2017-05-26T01:52:35.939Z,14.82
2017-05-26T01:53:16.843Z,14.73
2017-05-26T01:53:57.743Z,14.72
2017-05-26T01:54:38.625Z,14.82
2017-05-26T01:55:19.512Z,14.72
2017-05-26T01:56:00.396Z,14.77
2017-05-26T01:56:41.302Z,14.73
2017-05-26T01:57:22.166Z,14.72
2017-05-26T01:58:03.049Z,14.77
2017-05-26T01:58:43.938Z,14.7
2017-05-26T01:59:24.826Z,14.77
2017-05-26T02:00:05.729Z,14.82
2017-05-26T02:00:46.634Z,14.73
2017-05-26T02:01:27.574Z,14.72
2017-05-26T02:02:08.386Z,14.78
2017-05-26T02:02:49.254Z,14.78
2017-05-26T02:03:30.158Z,14.7
2017-05-26T02:04:11.060Z,14.7
2017-05-26T02:04:51.938Z,14.69
2017-05-26T02:05:32.822Z,14.63
2017-05-26T02:06:13.711Z,14.59
2017-05-26T02:06:54.596Z,14.77
2017-05-26T02:07:35.492Z,14.77
2017-05-26T02:08:16.379Z,14.72
2017-05-26T02:08:57.266Z,14.68
2017-05-26T02:09:38.145Z,14.68
2017-05-26T02:10:19.054Z,14.72
2017-05-26T02:10:59.965Z,14.63
2017-05-26T02:11:40.845Z,14.69
2017-05-26T02:12:21.740Z,14.6
2017-05-26T02:13:02.645Z,14.63
2017-05-26T02:13:43.528Z,14.72
2017-05-26T02:14:24.417Z,14.72
2017-05-26T02:15:05.293Z,14.63
2017-05-26T02:15:46.177Z,14.68
2017-05-26T02:16:27.061Z,14.68
2017-05-26T02:17:07.971Z,14.62
2017-05-26T02:17:48.830Z,14.68
2017-05-26T02:18:29.717Z,14.59
2017-05-26T02:19:10.597Z,14.69
2017-05-26T02:19:51.478Z,14.66
2017-05-26T02:20:32.362Z,14.72
2017-05-26T02:21:13.249Z,14.68
2017-05-26T02:21:54.145Z,14.63
2017-05-26T02:22:35.032Z,14.73
2017-05-26T02:23:15.921Z,14.66
2017-05-26T02:23:56.824Z,14.6
2017-05-26T02:24:37.709Z,14.65
2017-05-26T02:25:18.595Z,14.53
2017-05-26T02:25:59.484Z,14.65
2017-05-26T02:26:40.371Z,14.62
2017-05-26T02:27:21.251Z,14.59
2017-05-26T02:28:02.129Z,14.55
2017-05-26T02:28:43.059Z,14.53
2017-05-26T02:29:23.894Z,14.48
2017-05-26T02:30:04.792Z,14.59
2017-05-26T02:30:45.690Z,14.51
2017-05-26T02:31:26.574Z,14.5
2017-05-26T02:32:07.452Z,14.54
2017-05-26T02:32:48.330Z,14.58
2017-05-26T02:33:29.223Z,14.58
2017-05-26T02:34:10.104Z,14.55
2017-05-26T02:34:51.023Z,14.51
2017-05-26T02:35:31.916Z,14.53
2017-05-26T02:36:12.795Z,14.59
2017-05-26T02:36:53.700Z,14.45
2017-05-26T02:37:34.574Z,14.45
2017-05-26T02:38:15.458Z,14.58
2017-05-26T02:38:56.377Z,14.59
2017-05-26T02:39:37.257Z,14.51
2017-05-26T02:40:18.156Z,14.58
2017-05-26T02:40:59.042Z,14.5
2017-05-26T02:41:39.947Z,14.58
2017-05-26T02:42:20.822Z,14.47
2017-05-26T02:43:01.714Z,14.6
2017-05-26T02:43:42.604Z,14.53
2017-05-26T02:44:23.494Z,14.53
2017-05-26T02:45:04.380Z,14.53
2017-05-26T02:45:45.267Z,14.54
2017-05-26T02:46:26.146Z,14.5
2017-05-26T02:47:07.033Z,14.45
2017-05-26T02:47:47.919Z,14.48
2017-05-26T02:48:28.807Z,14.47
2017-05-26T02:49:09.687Z,14.45
2017-05-26T02:49:50.577Z,14.51
2017-05-26T02:50:31.473Z,14.4
2017-05-26T02:51:12.355Z,14.37
2017-05-26T02:51:53.242Z,14.35
2017-05-26T02:52:34.131Z,14.37
2017-05-26T02:53:15.032Z,14.4
2017-05-26T02:53:55.921Z,14.4
2017-05-26T02:54:36.809Z,14.41
2017-05-26T02:55:17.696Z,14.48
2017-05-26T02:55:58.578Z,14.41
2017-05-26T02:56:39.482Z,14.35
2017-05-26T02:57:20.372Z,14.41
2017-05-26T02:58:01.257Z,14.33
2017-05-26T02:58:42.136Z,14.35
2017-05-26T02:59:23.016Z,14.29
2017-05-26T03:00:03.902Z,14.33
2017-05-26T03:00:44.784Z,14.37
2017-05-26T03:01:25.664Z,14.36
2017-05-26T03:03:19.297Z,14.41
2017-05-26T03:04:00.164Z,14.41
2017-05-26T03:04:41.045Z,14.4
2017-05-26T03:05:21.934Z,14.43
2017-05-26T03:06:02.823Z,14.51
2017-05-26T03:06:43.706Z,14.51
2017-05-26T03:07:24.580Z,14.45
2017-05-26T03:08:05.491Z,14.47
2017-05-26T03:08:46.361Z,14.45
2017-05-26T03:09:27.253Z,14.35
2017-05-26T03:10:08.141Z,14.35
2017-05-26T03:10:49.025Z,14.32
2017-05-26T03:11:29.907Z,14.28
2017-05-26T03:12:10.789Z,14.33
2017-05-26T03:12:51.675Z,14.3
2017-05-26T03:13:32.565Z,14.35
2017-05-26T03:14:13.439Z,14.33
2017-05-26T03:14:54.325Z,14.36
2017-05-26T03:15:35.208Z,14.32
2017-05-26T03:16:16.112Z,14.33
2017-05-26T03:16:56.995Z,14.33
2017-05-26T03:17:37.882Z,14.36
2017-05-26T03:18:18.771Z,14.36
2017-05-26T03:18:59.649Z,14.32
2017-05-26T03:19:40.533Z,14.37
2017-05-26T03:20:21.425Z,14.4
2017-05-26T03:21:02.328Z,14.55
2017-05-26T03:21:43.324Z,14.45
2017-05-26T03:22:24.204Z,14.36
2017-05-26T03:23:05.114Z,14.47
2017-05-26T03:23:46.007Z,14.35
2017-05-26T03:24:26.901Z,14.28
2017-05-26T03:25:07.789Z,14.41
2017-05-26T03:25:48.670Z,14.33
2017-05-26T03:26:29.567Z,14.4
2017-05-26T03:27:10.475Z,14.36
2017-05-26T03:27:51.363Z,14.32
2017-05-26T03:28:32.249Z,14.29
2017-05-26T03:29:13.134Z,14.26
2017-05-26T03:29:54.029Z,14.33
2017-05-26T03:30:34.929Z,14.33
2017-05-26T03:31:15.820Z,14.33
2017-05-26T03:31:56.714Z,14.36
2017-05-26T03:32:37.606Z,14.32
2017-05-26T03:33:18.485Z,14.29
2017-05-26T03:33:59.365Z,14.32
2017-05-26T03:34:40.257Z,14.25
2017-05-26T03:35:21.159Z,14.35
2017-05-26T03:36:02.036Z,14.36
2017-05-26T03:36:42.923Z,14.26
2017-05-26T03:37:23.807Z,14.32
2017-05-26T03:38:04.686Z,14.29
2017-05-26T03:38:45.565Z,14.25
2017-05-26T03:39:26.469Z,14.35
2017-05-26T03:40:07.343Z,14.22
2017-05-26T03:40:48.219Z,14.3
2017-05-26T03:41:29.102Z,14.3
2017-05-26T03:42:09.982Z,14.32
2017-05-26T03:42:50.894Z,14.33
2017-05-26T03:43:31.778Z,14.29
2017-05-26T03:44:12.665Z,14.35
2017-05-26T03:44:53.553Z,14.25
2017-05-26T03:45:34.427Z,14.28
2017-05-26T03:46:15.311Z,14.29
2017-05-26T03:46:56.191Z,14.3
2017-05-26T03:47:37.086Z,14.36
2017-05-26T03:48:17.971Z,14.3
2017-05-26T03:48:58.854Z,14.29
2017-05-26T03:49:39.732Z,14.33
2017-05-26T03:50:20.620Z,14.29
2017-05-26T03:51:01.497Z,14.3
2017-05-26T03:51:42.376Z,14.32
2017-05-26T03:52:23.294Z,14.28
2017-05-26T03:53:04.182Z,14.3
2017-05-26T03:53:45.053Z,14.3
2017-05-26T03:54:25.944Z,14.32
2017-05-26T03:55:06.848Z,14.33
2017-05-26T03:55:47.737Z,14.35
2017-05-26T03:56:28.616Z,14.29
2017-05-26T03:57:09.505Z,14.33
2017-05-26T03:57:50.404Z,14.3
2017-05-26T03:58:31.294Z,14.29
2017-05-26T03:59:12.184Z,14.23
2017-05-26T03:59:53.082Z,14.32
2017-05-26T04:00:33.967Z,14.29
2017-05-26T04:01:14.878Z,14.33
2017-05-26T04:01:55.763Z,14.35
2017-05-26T04:02:36.654Z,14.33
2017-05-26T04:03:17.545Z,14.43
2017-05-26T04:03:58.431Z,14.33
2017-05-26T04:04:39.322Z,14.32
2017-05-26T04:05:20.210Z,14.33
2017-05-26T04:06:01.128Z,14.36
2017-05-26T04:06:41.995Z,14.37
2017-05-26T04:07:22.889Z,14.36
2017-05-26T04:08:03.774Z,14.33
2017-05-26T04:08:44.656Z,14.37
2017-05-26T04:09:25.542Z,14.4
2017-05-26T04:10:06.424Z,14.4
2017-05-26T04:10:47.318Z,14.4
2017-05-26T04:11:28.198Z,14.45
2017-05-26T04:12:09.092Z,14.5
2017-05-26T04:12:49.972Z,14.51
2017-05-26T04:13:30.846Z,14.54
2017-05-26T04:14:11.735Z,14.6
2017-05-26T04:14:52.639Z,14.54
2017-05-26T04:15:33.534Z,14.47
2017-05-26T04:16:14.427Z,14.5
2017-05-26T04:16:55.307Z,14.48
2017-05-26T04:17:36.197Z,14.5
2017-05-26T04:18:17.094Z,14.44
2017-05-26T04:18:57.982Z,14.45
2017-05-26T04:19:38.874Z,14.48
2017-05-26T04:20:19.763Z,14.66
2017-05-26T04:21:00.667Z,14.68
2017-05-26T04:21:41.546Z,14.69
2017-05-26T04:22:22.437Z,14.62
2017-05-26T04:23:03.336Z,14.62
2017-05-26T04:23:44.222Z,14.69
2017-05-26T04:24:25.094Z,14.7
2017-05-26T04:25:05.980Z,14.62
2017-05-26T04:25:46.889Z,14.62
2017-05-26T04:26:27.767Z,14.63
2017-05-26T04:27:08.668Z,14.51
2017-05-26T04:27:49.553Z,14.59
2017-05-26T04:28:30.433Z,14.54
2017-05-26T04:29:11.322Z,14.73
2017-05-26T04:29:52.211Z,14.69
2017-05-26T04:30:33.090Z,14.63
2017-05-26T04:31:13.968Z,14.62
2017-05-26T04:31:54.843Z,14.68
2017-05-26T04:32:35.726Z,14.7
2017-05-26T04:33:16.624Z,14.63
2017-05-26T04:33:57.503Z,14.73
2017-05-26T04:34:38.377Z,14.72
2017-05-26T04:35:19.264Z,14.78
2017-05-26T04:36:00.154Z,14.78
2017-05-26T04:36:41.036Z,14.68
2017-05-26T04:37:21.927Z,14.69
2017-05-26T04:38:02.809Z,14.69
2017-05-26T04:38:43.700Z,14.79
2017-05-26T04:39:24.597Z,14.78
2017-05-26T04:40:06.169Z,14.73
2017-05-26T04:40:47.058Z,14.7
2017-05-26T04:41:27.942Z,14.72
2017-05-26T04:42:08.827Z,14.73
2017-05-26T04:42:49.727Z,14.73
2017-05-26T04:43:30.618Z,14.78
2017-05-26T04:44:11.505Z,14.78
2017-05-26T04:44:52.397Z,14.72
2017-05-26T04:45:33.304Z,14.81
2017-05-26T04:46:14.175Z,14.81
2017-05-26T04:46:55.061Z,14.82
2017-05-26T04:47:35.958Z,14.84
2017-05-26T04:48:16.849Z,14.84
2017-05-26T04:48:57.743Z,14.84
2017-05-26T04:49:38.669Z,14.81
2017-05-26T04:50:19.559Z,14.81
2017-05-26T04:51:00.441Z,14.92
2017-05-26T04:51:41.321Z,14.82
2017-05-26T04:52:22.217Z,14.86
2017-05-26T04:53:03.112Z,14.97
2017-05-26T04:53:44.020Z,14.96
2017-05-26T04:54:24.905Z,14.86
2017-05-26T04:55:05.813Z,15.09
2017-05-26T04:55:46.696Z,14.94
2017-05-26T04:56:27.586Z,15
2017-05-26T04:57:08.484Z,15.07
2017-05-26T04:57:49.802Z,14.99
2017-05-26T04:58:30.688Z,15.06
2017-05-26T04:59:11.593Z,15.11
2017-05-26T04:59:52.480Z,15.03
2017-05-26T05:00:33.354Z,15.17
2017-05-26T05:01:14.242Z,15.09
2017-05-26T05:01:55.142Z,15.24
2017-05-26T05:02:36.068Z,15.22
2017-05-26T05:03:16.958Z,15.31
2017-05-26T05:03:57.836Z,15.35
2017-05-26T05:04:38.725Z,15.29
2017-05-26T05:05:19.606Z,15.25
2017-05-26T05:06:00.538Z,15.44
2017-05-26T05:06:42.405Z,15.42
2017-05-26T05:07:23.305Z,15.35
2017-05-26T05:08:04.189Z,15.44
2017-05-26T05:08:45.075Z,15.49
2017-05-26T05:09:25.954Z,15.47
2017-05-26T05:10:07.687Z,15.47
2017-05-26T05:10:49.184Z,15.51
2017-05-26T05:11:30.089Z,15.49
2017-05-26T05:12:10.988Z,15.54
2017-05-26T05:12:51.863Z,15.49
2017-05-26T05:13:32.758Z,15.36
2017-05-26T05:14:13.644Z,15.36
2017-05-26T05:14:54.539Z,15.52
2017-05-26T05:15:35.433Z,15.39
2017-05-26T05:16:16.327Z,15.42
2017-05-26T05:16:57.218Z,15.47
2017-05-26T05:17:38.104Z,15.44
2017-05-26T05:18:19.000Z,15.44
2017-05-26T05:18:59.885Z,15.47
2017-05-26T05:19:40.799Z,15.47
2017-05-26T05:20:21.685Z,15.42
2017-05-26T05:21:02.597Z,15.28
2017-05-26T05:21:43.492Z,15.36
2017-05-26T05:22:24.383Z,15.22
2017-05-26T05:23:05.278Z,15.29
2017-05-26T05:23:46.168Z,15.25
2017-05-26T05:24:27.048Z,15.22
2017-05-26T05:25:07.922Z,15.19
2017-05-26T05:25:48.822Z,15.19
2017-05-26T05:26:29.723Z,15.19
2017-05-26T05:27:10.606Z,15.15
2017-05-26T05:27:51.492Z,15.1
2017-05-26T05:28:32.380Z,15.1
2017-05-26T05:29:13.263Z,15.09
2017-05-26T05:29:54.138Z,15.06
2017-05-26T05:31:32.532Z,15.17
2017-05-26T05:32:13.435Z,15.15
2017-05-26T05:32:54.323Z,15.04
2017-05-26T05:33:35.218Z,15.02
2017-05-26T05:34:16.104Z,15
2017-05-26T05:34:56.994Z,15.03
2017-05-26T05:35:37.880Z,14.82
2017-05-26T05:36:18.753Z,14.94
2017-05-26T05:36:59.632Z,14.79
2017-05-26T05:37:40.534Z,14.78
2017-05-26T05:38:21.424Z,14.72
2017-05-26T05:39:02.381Z,14.89
2017-05-26T05:39:43.229Z,15.09
2017-05-26T05:40:24.106Z,15.15
2017-05-26T05:41:04.999Z,14.96
2017-05-26T05:41:45.888Z,15.14
2017-05-26T05:42:26.761Z,15.09
2017-05-26T05:43:07.641Z,15.09
2017-05-26T05:43:48.527Z,15.11
2017-05-26T05:44:29.416Z,15.02
2017-05-26T05:45:10.317Z,14.91
2017-05-26T05:45:51.259Z,15.03
2017-05-26T05:46:32.112Z,14.96
2017-05-26T05:47:12.989Z,15.11
2017-05-26T05:47:53.867Z,14.97
2017-05-26T05:48:34.765Z,14.89
2017-05-26T05:49:15.657Z,14.96
2017-05-26T05:49:56.555Z,15.04
2017-05-26T05:50:37.467Z,14.92
2017-05-26T05:51:18.343Z,14.88
2017-05-26T05:51:59.220Z,14.85
2017-05-26T05:52:40.118Z,15
2017-05-26T05:53:21.009Z,15.06
2017-05-26T05:54:01.895Z,14.92
2017-05-26T05:54:42.788Z,14.84
2017-05-26T05:55:23.682Z,14.94
2017-05-26T05:56:04.593Z,14.92
2017-05-26T05:56:45.505Z,14.94
2017-05-26T05:57:26.397Z,14.91
2017-05-26T05:58:07.306Z,14.88
2017-05-26T05:58:48.175Z,14.88
2017-05-26T05:59:29.076Z,15
2017-05-26T06:00:09.983Z,15.04
2017-05-26T06:00:50.867Z,14.96
2017-05-26T06:01:31.742Z,15
2017-05-26T06:02:12.647Z,15.09
2017-05-26T06:02:53.540Z,15.09
2017-05-26T06:03:34.442Z,15.15
2017-05-26T06:04:15.340Z,15.09
2017-05-26T06:04:56.219Z,15.03
2017-05-26T06:05:37.115Z,15.03
2017-05-26T06:06:18.010Z,14.89
2017-05-26T06:06:58.883Z,14.96
2017-05-26T06:07:39.781Z,14.77
2017-05-26T06:08:20.675Z,14.79
2017-05-26T06:09:01.563Z,14.73
2017-05-26T06:09:42.442Z,14.88
2017-05-26T06:10:23.379Z,14.73
2017-05-26T06:11:04.250Z,14.78
2017-05-26T06:11:45.149Z,14.73
2017-05-26T06:12:26.616Z,14.89
2017-05-26T06:13:07.529Z,14.82
2017-05-26T06:14:36.612Z,14.96
2017-05-26T06:15:17.502Z,14.91
2017-05-26T06:15:58.385Z,14.89
2017-05-26T06:16:39.291Z,14.99
2017-05-26T06:17:20.172Z,14.89
2017-05-26T06:18:01.068Z,14.89
2017-05-26T06:18:41.957Z,14.81
2017-05-26T06:19:22.838Z,14.79
2017-05-26T06:20:03.725Z,14.81
2017-05-26T06:20:44.614Z,14.73
2017-05-26T06:21:25.504Z,14.96
2017-05-26T06:22:06.361Z,14.79
2017-05-26T06:22:47.245Z,14.77
2017-05-26T06:23:28.145Z,14.81
2017-05-26T06:24:09.029Z,14.89
2017-05-26T06:24:49.915Z,14.92
2017-05-26T06:25:30.803Z,15.02
2017-05-26T06:26:11.706Z,15
2017-05-26T06:26:52.589Z,15
2017-05-26T06:27:33.479Z,14.91
2017-05-26T06:28:14.373Z,14.86
2017-05-26T06:28:55.255Z,14.91
2017-05-26T06:29:36.155Z,14.79
2017-05-26T06:30:17.054Z,14.84
2017-05-26T06:30:57.932Z,14.82
2017-05-26T06:31:38.817Z,14.97
2017-05-26T06:32:19.710Z,14.97
2017-05-26T06:33:00.600Z,14.84
2017-05-26T06:33:41.492Z,14.99
2017-05-26T06:34:22.386Z,15.03
2017-05-26T06:35:03.281Z,15.04
2017-05-26T06:35:44.161Z,15
2017-05-26T06:36:27.953Z,15.07
2017-05-26T06:37:08.828Z,15.14
2017-05-26T06:37:49.729Z,15.15
2017-05-26T06:38:30.639Z,15.09
2017-05-26T06:39:11.578Z,15.22
2017-05-26T06:39:52.970Z,15.24
2017-05-26T06:40:33.862Z,15.28
2017-05-26T06:41:14.924Z,15.36
2017-05-26T06:41:55.824Z,15.43
2017-05-26T06:42:36.713Z,15.65
2017-05-26T06:43:17.588Z,15.55
2017-05-26T06:43:58.491Z,15.68
2017-05-26T06:44:39.388Z,15.4
2017-05-26T06:45:20.254Z,15.51
2017-05-26T06:46:01.148Z,15.36
2017-05-26T06:46:42.036Z,15.4
2017-05-26T06:47:22.923Z,15.25
2017-05-26T06:48:03.808Z,15.25
2017-05-26T06:48:44.708Z,15.18
2017-05-26T06:49:25.597Z,15.19
2017-05-26T06:50:06.471Z,15.18
2017-05-26T06:50:47.356Z,15.25
2017-05-26T06:51:28.252Z,15.21
2017-05-26T06:52:09.131Z,15.09
2017-05-26T06:52:50.037Z,15.17
2017-05-26T06:53:30.949Z,15.18
2017-05-26T06:54:11.835Z,15.22
2017-05-26T06:54:52.747Z,15.36
2017-05-26T06:55:33.631Z,15.27
2017-05-26T06:56:14.520Z,15.33
2017-05-26T06:56:55.453Z,15.37
2017-05-26T06:57:36.335Z,15.42
2017-05-26T06:58:17.233Z,15.44
2017-05-26T06:58:58.131Z,15.42
2017-05-26T06:59:38.999Z,15.39
2017-05-26T07:00:20.704Z,15.25
2017-05-26T07:01:01.587Z,15.39
2017-05-26T07:01:42.471Z,15.44
2017-05-26T07:02:23.349Z,15.62
2017-05-26T07:03:04.238Z,15.57
2017-05-26T07:03:45.138Z,15.43
2017-05-26T07:04:26.015Z,15.36
2017-05-26T07:05:06.889Z,15.46
2017-05-26T07:05:47.795Z,15.37
2017-05-26T07:06:28.689Z,15.37
2017-05-26T07:07:09.557Z,15.22
2017-05-26T07:07:50.440Z,15.31
2017-05-26T07:08:31.340Z,15.24
2017-05-26T07:09:12.227Z,15.17
2017-05-26T07:09:53.112Z,15.15
2017-05-26T07:10:34.012Z,15.21
2017-05-26T07:11:14.900Z,15.33
2017-05-26T07:11:55.776Z,15.37
2017-05-26T07:12:36.682Z,15.37
2017-05-26T07:13:17.570Z,15.37
2017-05-26T07:13:58.455Z,15.28
2017-05-26T07:14:39.347Z,15.37
2017-05-26T07:15:20.250Z,15.36
2017-05-26T07:16:01.161Z,15.25
2017-05-26T07:16:42.054Z,15.42
2017-05-26T07:17:22.937Z,15.22
2017-05-26T07:18:03.840Z,15.36
2017-05-26T07:18:44.733Z,15.27
2017-05-26T07:19:25.621Z,15.24
2017-05-26T07:20:06.527Z,15.36
2017-05-26T07:20:47.417Z,15.36
2017-05-26T07:21:28.315Z,15.52
2017-05-26T07:22:09.223Z,15.54
2017-05-26T07:22:50.108Z,15.58
2017-05-26T07:23:30.984Z,15.68
2017-05-26T07:24:13.398Z,15.65
2017-05-26T07:24:53.397Z,15.59
2017-05-26T07:25:35.852Z,15.49
2017-05-26T07:26:16.743Z,15.37
2017-05-26T07:26:57.627Z,15.42
2017-05-26T07:27:38.532Z,15.31
2017-05-26T07:28:19.507Z,15.58
2017-05-26T07:29:00.392Z,15.7
2017-05-26T07:29:41.852Z,15.84
2017-05-26T07:30:22.801Z,15.72
2017-05-26T07:31:03.687Z,15.72
2017-05-26T07:31:45.353Z,15.73
2017-05-26T07:32:26.449Z,15.91
2017-05-26T07:33:07.349Z,16.01
2017-05-26T07:33:48.239Z,15.97
2017-05-26T07:34:29.131Z,15.91
2017-05-26T07:35:10.026Z,15.94
2017-05-26T07:35:50.913Z,15.91
2017-05-26T07:36:31.806Z,16.02
2017-05-26T07:37:12.712Z,16
2017-05-26T07:37:53.603Z,15.83
2017-05-26T07:38:34.499Z,15.82
2017-05-26T07:39:15.392Z,15.67
2017-05-26T07:39:56.280Z,15.75
2017-05-26T07:40:37.186Z,15.64
2017-05-26T07:41:18.063Z,15.73
2017-05-26T07:41:58.962Z,15.76
2017-05-26T07:42:39.871Z,15.7
2017-05-26T07:43:20.765Z,15.76
2017-05-26T07:44:01.659Z,15.62
2017-05-26T07:44:42.581Z,15.72
2017-05-26T07:45:23.482Z,15.67
2017-05-26T07:46:04.368Z,15.76
2017-05-26T07:46:45.253Z,15.7
2017-05-26T07:47:26.162Z,15.8
2017-05-26T07:48:07.053Z,15.8
2017-05-26T07:48:47.928Z,15.94
2017-05-26T07:49:28.838Z,16.01
2017-05-26T07:50:09.730Z,15.92
2017-05-26T07:50:50.619Z,15.91
2017-05-26T07:51:31.515Z,15.92
2017-05-26T07:52:12.401Z,15.92
2017-05-26T07:52:53.287Z,15.95
2017-05-26T07:53:34.243Z,15.92
2017-05-26T07:54:15.147Z,15.92
2017-05-26T07:54:56.040Z,15.98
2017-05-26T07:55:36.933Z,16.1
2017-05-26T07:56:17.840Z,16.26
2017-05-26T07:56:58.732Z,16.46
2017-05-26T07:57:39.628Z,16.43
2017-05-26T07:58:20.527Z,16.6
2017-05-26T07:59:01.415Z,16.57
2017-05-26T07:59:42.309Z,16.43
2017-05-26T08:00:23.206Z,16.5
2017-05-26T08:01:04.089Z,16.47
2017-05-26T08:01:46.495Z,16.5
2017-05-26T08:02:27.403Z,16.47
2017-05-26T08:03:08.296Z,16.32
2017-05-26T08:03:49.216Z,16.23
2017-05-26T08:04:30.096Z,16.26
2017-05-26T08:05:10.974Z,16.33
2017-05-26T08:05:51.872Z,16.26
2017-05-26T08:06:32.778Z,16.1
2017-05-26T08:07:13.654Z,16.09
2017-05-26T08:07:54.553Z,16.01
2017-05-26T08:08:35.445Z,16.15
2017-05-26T08:09:16.330Z,16.02
2017-05-26T08:09:57.231Z,15.95
2017-05-26T08:10:38.122Z,16.1
2017-05-26T08:11:19.003Z,15.97
2017-05-26T08:11:59.901Z,15.91
2017-05-26T08:12:40.798Z,16
2017-05-26T08:13:21.681Z,16.21
2017-05-26T08:14:02.574Z,16.09
2017-05-26T08:14:43.486Z,16.12
2017-05-26T08:15:24.353Z,16.16
2017-05-26T08:16:05.258Z,16.32
2017-05-26T08:16:46.151Z,16.23
2017-05-26T08:17:27.030Z,16.31
2017-05-26T08:18:07.919Z,16.31
2017-05-26T08:18:48.805Z,16.13
2017-05-26T08:19:29.684Z,16.23
2017-05-26T08:20:10.566Z,16.24
2017-05-26T08:20:51.470Z,16.26
2017-05-26T08:21:32.366Z,16.29
2017-05-26T08:22:13.241Z,16.38
2017-05-26T08:22:54.128Z,16.38
2017-05-26T08:23:35.026Z,16.32
2017-05-26T08:24:15.900Z,16.39
2017-05-26T08:24:56.787Z,16.5
2017-05-26T08:25:37.700Z,16.47
2017-05-26T08:26:18.573Z,16.47
2017-05-26T08:26:59.462Z,16.43
2017-05-26T08:27:40.366Z,16.46
2017-05-26T08:28:21.257Z,16.35
2017-05-26T08:29:02.148Z,16.53
2017-05-26T08:29:43.062Z,16.53
2017-05-26T08:30:23.919Z,16.47
2017-05-26T08:31:04.849Z,16.54
2017-05-26T08:31:45.737Z,16.61
2017-05-26T08:32:26.614Z,16.5
2017-05-26T08:33:07.507Z,16.9
2017-05-26T08:33:48.411Z,16.47
2017-05-26T08:34:29.293Z,16.38
2017-05-26T08:35:10.192Z,16.61
2017-05-26T08:35:51.091Z,16.79
2017-05-26T08:36:31.968Z,16.84
2017-05-26T08:37:12.858Z,17.08
2017-05-26T08:37:54.739Z,16.93
2017-05-26T08:38:36.385Z,16.89
2017-05-26T08:39:17.279Z,16.75
2017-05-26T08:39:58.204Z,16.64
2017-05-26T08:40:39.130Z,16.84
2017-05-26T08:41:20.009Z,16.86
2017-05-26T08:42:00.911Z,16.89
2017-05-26T08:42:41.817Z,16.97
2017-05-26T08:43:22.698Z,16.93
2017-05-26T08:44:03.600Z,17.04
2017-05-26T08:44:44.475Z,17.05
2017-05-26T08:45:25.356Z,16.94
2017-05-26T08:46:06.266Z,17.09
2017-05-26T08:46:47.170Z,17.27
2017-05-26T08:47:28.054Z,17.04
2017-05-26T08:48:08.971Z,17.27
2017-05-26T08:48:49.864Z,17.08
2017-05-26T08:49:30.755Z,17.04
2017-05-26T08:50:11.659Z,17.05
2017-05-26T08:50:52.542Z,17.2
2017-05-26T08:51:33.457Z,17.36
2017-05-26T08:52:14.362Z,17.45
2017-05-26T08:52:55.260Z,17.59
2017-05-26T08:53:36.158Z,17.34
2017-05-26T08:54:17.035Z,17.27